createdAt,value
2018-06-19T00:01:54.609Z,3.40
2018-06-19T00:04:22.728Z,4.17
2018-06-19T00:06:50.874Z,3.50
2018-06-19T00:09:18.974Z,3.63
2018-06-19T00:11:47.100Z,3.87
2018-06-19T00:14:15.191Z,3.60
2018-06-19T00:16:43.313Z,3.73
2018-06-19T00:19:11.406Z,3.27
2018-06-19T00:21:50.577Z,3.33
2018-06-19T00:24:18.737Z,3.37
2018-06-19T00:26:46.870Z,3.70
2018-06-19T00:29:14.988Z,3.23
2018-06-19T00:31:43.106Z,3.40
2018-06-19T00:34:11.223Z,4.30
2018-06-19T00:36:39.331Z,4.20
2018-06-19T00:39:08.644Z,3.57
2018-06-19T00:41:36.773Z,4.30
2018-06-19T00:44:04.882Z,3.80
2018-06-19T00:46:33.832Z,4.63
2018-06-19T00:49:01.961Z,3.67
2018-06-19T00:51:30.054Z,3.80
2018-06-19T00:53:58.168Z,3.40
2018-06-19T00:56:37.659Z,3.97
2018-06-19T00:59:05.735Z,4.00
2018-06-19T01:01:33.850Z,4.53
2018-06-19T01:04:01.968Z,4.67
2018-06-19T01:06:30.075Z,4.53
2018-06-19T01:08:58.188Z,3.93
2018-06-19T01:11:26.304Z,5.13
2018-06-19T01:13:54.594Z,5.10
2018-06-19T01:16:22.696Z,5.67
2018-06-19T01:18:50.772Z,5.27
2018-06-19T01:21:18.863Z,5.40
2018-06-19T01:23:46.947Z,5.80
2018-06-19T01:26:15.070Z,6.20
2018-06-19T01:28:43.214Z,5.13
2018-06-19T01:31:11.316Z,5.40
2018-06-19T01:33:39.414Z,5.73
2018-06-19T01:36:07.504Z,4.80
2018-06-19T01:38:35.609Z,5.03
2018-06-19T01:41:03.690Z,6.00
2018-06-19T01:43:31.855Z,6.00
2018-06-19T01:45:59.961Z,5.67
2018-06-19T01:48:28.071Z,7.47
2018-06-19T01:50:56.767Z,7.90
2018-06-19T01:53:24.872Z,7.93
2018-06-19T01:55:53.060Z,8.70
2018-06-19T01:58:21.151Z,8.37
2018-06-19T02:00:49.282Z,7.30
2018-06-19T02:03:17.388Z,8.60
2018-06-19T02:05:45.483Z,8.27
2018-06-19T02:08:13.567Z,7.30
2018-06-19T02:10:41.659Z,7.57
2018-06-19T02:13:09.764Z,7.10
2018-06-19T02:15:37.860Z,7.37
2018-06-19T02:18:05.995Z,6.97
2018-06-19T02:20:34.143Z,6.80
2018-06-19T02:23:02.292Z,6.77
2018-06-19T02:25:30.411Z,7.03
2018-06-19T02:27:58.521Z,7.60
2018-06-19T02:30:26.629Z,8.70
2018-06-19T02:32:54.727Z,8.40
2018-06-19T02:35:22.835Z,8.43
2018-06-19T02:37:50.946Z,8.63
2018-06-19T02:40:19.062Z,10.53
2018-06-19T02:42:47.193Z,8.10
2018-06-19T02:45:15.312Z,7.53
2018-06-19T02:47:43.436Z,8.80
2018-06-19T02:50:11.555Z,11.50
2018-06-19T02:52:39.696Z,8.90
2018-06-19T02:55:07.795Z,9.50
2018-06-19T02:57:35.904Z,9.83
2018-06-19T03:00:04.427Z,10.40
2018-06-19T03:02:32.549Z,10.80
2018-06-19T03:05:00.659Z,10.73
2018-06-19T03:07:28.773Z,11.00
2018-06-19T03:09:56.881Z,10.57
2018-06-19T03:12:24.979Z,9.30
2018-06-19T03:14:53.099Z,10.70
2018-06-19T03:17:21.203Z,10.00
2018-06-19T03:19:49.326Z,9.40
2018-06-19T03:22:17.434Z,9.63
2018-06-19T03:24:45.553Z,9.63
2018-06-19T03:27:13.669Z,9.17
2018-06-19T03:29:41.775Z,8.37
2018-06-19T03:32:09.880Z,8.60
2018-06-19T03:34:38.003Z,9.90
2018-06-19T03:37:06.128Z,10.20
2018-06-19T03:39:34.245Z,9.10
2018-06-19T03:42:02.339Z,8.77
2018-06-19T03:44:30.472Z,8.67
2018-06-19T03:46:58.580Z,7.63
2018-06-19T03:49:26.719Z,8.73
2018-06-19T03:51:54.843Z,11.23
2018-06-19T03:54:23.047Z,9.93
2018-06-19T03:56:51.166Z,9.60
2018-06-19T03:59:19.287Z,9.60
2018-06-19T04:01:47.408Z,10.73
2018-06-19T04:04:15.519Z,9.70
2018-06-19T04:06:43.649Z,11.83
2018-06-19T04:09:11.766Z,11.00
2018-06-19T04:11:39.901Z,12.00
2018-06-19T04:14:08.049Z,11.30
2018-06-19T04:16:36.182Z,11.57
2018-06-19T04:19:04.279Z,11.70
2018-06-19T04:21:32.386Z,11.90
2018-06-19T04:24:00.490Z,10.70
2018-06-19T04:26:28.639Z,11.57
2018-06-19T04:28:56.758Z,11.73
2018-06-19T04:31:24.878Z,11.97
2018-06-19T04:33:53.355Z,10.37
2018-06-19T04:36:21.489Z,12.43
2018-06-19T04:38:49.594Z,11.90
2018-06-19T04:41:17.711Z,11.77
2018-06-19T04:43:45.860Z,11.50
2018-06-19T04:46:13.984Z,12.53
2018-06-19T04:48:42.094Z,11.23
2018-06-19T04:51:10.216Z,11.10
2018-06-19T04:53:38.331Z,10.97
2018-06-19T04:56:06.442Z,12.80
2018-06-19T04:58:34.563Z,11.10
2018-06-19T05:01:02.670Z,11.60
2018-06-19T05:03:30.771Z,11.27
2018-06-19T05:05:59.022Z,11.07
2018-06-19T05:08:27.227Z,9.67
2018-06-19T05:10:55.393Z,10.90
2018-06-19T05:13:23.515Z,9.63
2018-06-19T05:15:51.734Z,10.47
2018-06-19T05:18:19.927Z,7.73
2018-06-19T05:20:48.061Z,8.57
2018-06-19T05:23:16.282Z,7.70
2018-06-19T05:25:44.522Z,7.40
2018-06-19T05:28:12.628Z,6.80
2018-06-19T05:30:40.748Z,6.77
2018-06-19T05:33:08.884Z,6.40
2018-06-19T05:35:36.992Z,6.10
2018-06-19T05:38:05.159Z,5.73
2018-06-19T05:40:33.259Z,5.87
2018-06-19T05:43:01.412Z,5.87
2018-06-19T05:45:29.515Z,4.70
2018-06-19T05:47:57.637Z,5.97
2018-06-19T05:50:25.775Z,5.07
2018-06-19T05:52:53.966Z,5.10
2018-06-19T05:55:22.072Z,4.37
2018-06-19T05:57:50.184Z,4.37
2018-06-19T06:00:18.277Z,4.93
2018-06-19T06:02:46.392Z,4.23
2018-06-19T06:05:14.517Z,4.33
2018-06-19T06:07:42.642Z,5.13
2018-06-19T06:10:10.793Z,5.10
2018-06-19T06:12:38.914Z,4.63
2018-06-19T06:15:07.026Z,4.33
2018-06-19T06:17:35.305Z,5.00
2018-06-19T06:20:03.190Z,4.50
2018-06-19T06:22:31.304Z,5.00
2018-06-19T06:24:59.463Z,4.40
2018-06-19T06:27:27.607Z,4.07
2018-06-19T06:29:55.789Z,3.90
2018-06-19T06:32:23.935Z,4.80
2018-06-19T06:34:52.100Z,5.30
2018-06-19T06:37:20.224Z,4.50
2018-06-19T06:39:48.348Z,4.20
2018-06-19T06:42:16.531Z,4.23
2018-06-19T06:44:44.630Z,4.53
2018-06-19T06:47:12.760Z,5.30
2018-06-19T06:49:40.882Z,5.30
2018-06-19T06:52:09.032Z,4.80
2018-06-19T06:54:37.141Z,4.73
2018-06-19T06:57:05.355Z,4.33
2018-06-19T06:59:33.459Z,4.90
2018-06-19T07:02:01.564Z,4.60
2018-06-19T07:04:29.666Z,4.27
2018-06-19T07:06:58.848Z,4.07
2018-06-19T07:09:26.972Z,4.83
2018-06-19T07:11:55.063Z,4.03
2018-06-19T07:14:23.182Z,4.23
2018-06-19T07:16:51.278Z,5.20
2018-06-19T07:19:19.427Z,3.80
2018-06-19T07:21:47.506Z,3.90
2018-06-19T07:24:15.724Z,4.90
2018-06-19T07:26:43.821Z,3.70
2018-06-19T07:29:11.996Z,3.60
2018-06-19T07:31:40.095Z,4.27
2018-06-19T07:34:08.211Z,3.23
2018-06-19T07:36:36.299Z,4.07
2018-06-19T07:39:06.976Z,4.20
2018-06-19T07:41:35.077Z,4.50
2018-06-19T07:44:03.273Z,4.60
2018-06-19T07:46:31.317Z,3.93
2018-06-19T07:48:59.432Z,4.50
2018-06-19T07:51:27.534Z,3.70
2018-06-19T07:53:55.676Z,3.97
2018-06-19T07:56:23.895Z,4.17
2018-06-19T07:58:52.007Z,4.17
2018-06-19T08:01:20.119Z,4.17
2018-06-19T08:03:48.215Z,4.37
2018-06-19T08:06:16.315Z,4.20
2018-06-19T08:08:44.485Z,3.97
2018-06-19T08:11:12.576Z,3.50
2018-06-19T08:13:40.694Z,4.20
2018-06-19T08:16:08.784Z,3.30
2018-06-19T08:18:37.200Z,4.03
2018-06-19T08:21:05.394Z,4.00
2018-06-19T08:23:33.538Z,2.60
2018-06-19T08:26:01.784Z,3.03
2018-06-19T08:28:29.907Z,3.20
2018-06-19T08:30:58.147Z,3.10
2018-06-19T08:33:26.252Z,2.70
2018-06-19T08:35:54.357Z,3.10
2018-06-19T08:38:22.493Z,4.43
2018-06-19T08:40:50.594Z,2.60
2018-06-19T08:43:18.750Z,3.13
2018-06-19T08:45:46.867Z,3.13
2018-06-19T08:48:15.015Z,4.00
2018-06-19T08:50:43.139Z,3.10
2018-06-19T08:53:11.275Z,3.27
2018-06-19T08:55:39.384Z,3.03
2018-06-19T08:58:07.486Z,2.50
2018-06-19T09:00:35.644Z,2.13
2018-06-19T09:03:03.747Z,2.30
2018-06-19T09:05:31.847Z,2.20
2018-06-19T09:08:00.073Z,2.20
2018-06-19T09:10:28.200Z,2.00
2018-06-19T09:12:56.376Z,1.93
2018-06-19T09:15:24.510Z,1.80
2018-06-19T09:17:52.631Z,2.57
2018-06-19T09:20:20.802Z,2.10
2018-06-19T09:22:48.842Z,2.07
2018-06-19T09:25:16.934Z,1.90
2018-06-19T09:27:45.036Z,1.50
2018-06-19T09:30:13.135Z,2.67
2018-06-19T09:32:41.327Z,2.93
2018-06-19T09:35:09.459Z,2.03
2018-06-19T09:37:37.616Z,2.03
2018-06-19T09:40:05.711Z,1.53
2018-06-19T09:42:33.826Z,1.53
2018-06-19T09:45:01.929Z,2.50
2018-06-19T09:47:30.021Z,2.80
2018-06-19T09:49:58.180Z,2.60
2018-06-19T09:52:26.302Z,2.67
2018-06-19T09:54:54.430Z,2.10
2018-06-19T09:57:22.516Z,2.73
2018-06-19T09:59:50.630Z,2.50
2018-06-19T10:02:18.736Z,2.43
2018-06-19T10:04:46.835Z,2.43
2018-06-19T10:07:19.180Z,2.90
2018-06-19T10:09:47.291Z,3.47
2018-06-19T10:12:15.453Z,2.50
2018-06-19T10:14:43.539Z,2.70
2018-06-19T10:17:11.647Z,2.57
2018-06-19T10:19:39.744Z,3.03
2018-06-19T10:22:07.831Z,3.30
2018-06-19T10:24:35.948Z,3.27
2018-06-19T10:27:04.053Z,2.90
2018-06-19T10:29:32.139Z,2.70
2018-06-19T10:32:00.233Z,3.00
2018-06-19T10:34:28.315Z,3.23
2018-06-19T10:36:56.412Z,3.03
2018-06-19T10:39:24.512Z,2.53
2018-06-19T10:41:52.627Z,3.23
2018-06-19T10:44:20.718Z,3.40
2018-06-19T10:46:48.831Z,3.50
2018-06-19T10:49:16.921Z,3.40
2018-06-19T10:51:45.022Z,3.43
2018-06-19T10:54:13.122Z,3.97
2018-06-19T10:56:41.224Z,3.33
2018-06-19T10:59:09.315Z,3.33
2018-06-19T11:01:37.414Z,3.23
2018-06-19T11:04:05.522Z,3.53
2018-06-19T11:06:33.649Z,4.27
2018-06-19T11:09:01.720Z,4.07
2018-06-19T11:11:29.830Z,3.53
2018-06-19T11:13:57.932Z,3.23
2018-06-19T11:16:26.062Z,3.73
2018-06-19T11:18:54.188Z,2.73
2018-06-19T11:21:22.320Z,4.00
2018-06-19T11:23:50.474Z,4.00
2018-06-19T11:26:18.555Z,3.67
2018-06-19T11:28:46.661Z,3.53
2018-06-19T11:31:14.781Z,3.30
2018-06-19T11:33:42.879Z,3.93
2018-06-19T11:36:10.994Z,3.20
2018-06-19T11:38:39.159Z,3.33
2018-06-19T11:41:07.242Z,3.87
2018-06-19T11:43:35.351Z,3.23
2018-06-19T11:46:03.459Z,3.77
2018-06-19T11:48:31.579Z,3.90
2018-06-19T11:50:59.787Z,3.97
2018-06-19T11:53:27.914Z,3.63
2018-06-19T11:55:56.207Z,3.30
2018-06-19T11:58:24.324Z,4.13
2018-06-19T12:00:53.400Z,3.60
2018-06-19T12:03:21.537Z,3.70
2018-06-19T12:05:49.684Z,3.70
2018-06-19T12:08:17.832Z,3.50
2018-06-19T12:10:45.946Z,3.30
2018-06-19T12:13:14.063Z,3.77
2018-06-19T12:15:42.158Z,3.47
2018-06-19T12:18:10.281Z,2.60
2018-06-19T12:20:38.438Z,2.77
2018-06-19T12:23:06.673Z,3.30
2018-06-19T12:25:34.803Z,4.10
2018-06-19T12:28:02.911Z,3.50
2018-06-19T12:30:31.008Z,3.80
2018-06-19T12:32:59.244Z,4.00
2018-06-19T12:35:27.350Z,4.47
2018-06-19T12:37:55.260Z,3.83
2018-06-19T12:40:23.374Z,3.30
2018-06-19T12:42:51.508Z,3.00
2018-06-19T12:45:19.619Z,3.50
2018-06-19T12:47:47.728Z,3.60
2018-06-19T12:50:37.692Z,3.70
2018-06-19T12:53:17.956Z,2.90
2018-06-19T12:55:58.014Z,3.20
2018-06-19T12:58:26.109Z,3.27
2018-06-19T13:00:54.227Z,3.60
2018-06-19T13:03:33.922Z,4.73
2018-06-19T13:06:44.230Z,5.03
2018-06-19T13:09:12.409Z,4.10
2018-06-19T13:11:40.522Z,4.40
2018-06-19T13:14:20.055Z,4.13
2018-06-19T13:16:59.703Z,4.53
2018-06-19T13:19:39.312Z,4.50
2018-06-19T13:22:07.428Z,5.10
2018-06-19T13:24:35.528Z,5.00
2018-06-19T13:27:03.637Z,4.80
2018-06-19T13:29:50.620Z,4.60
2018-06-19T13:32:18.734Z,4.30
2018-06-19T13:34:47.851Z,4.50
2018-06-19T13:37:15.958Z,5.50
2018-06-19T13:39:44.606Z,5.00
2018-06-19T13:42:24.325Z,5.10
2018-06-19T13:45:04.407Z,4.53
2018-06-19T13:47:32.519Z,5.40
2018-06-19T13:50:00.661Z,4.40
2018-06-19T13:52:28.751Z,5.83
2018-06-19T13:56:08.165Z,5.80
2018-06-19T13:58:37.190Z,6.03
2018-06-19T14:01:05.545Z,5.33
2018-06-19T14:03:33.651Z,6.20
2018-06-19T14:06:02.031Z,6.53
2018-06-19T14:08:53.995Z,6.50
2018-06-19T14:11:33.631Z,5.97
2018-06-19T14:14:01.721Z,6.50
2018-06-19T14:16:29.851Z,5.67
2018-06-19T14:18:57.935Z,6.40
2018-06-19T14:21:26.016Z,5.97
2018-06-19T14:23:54.134Z,5.67
2018-06-19T14:26:22.241Z,5.70
2018-06-19T14:28:50.368Z,6.40
2018-06-19T14:31:18.450Z,5.77
2018-06-19T14:33:46.533Z,5.47
2018-06-19T14:36:14.795Z,6.93
2018-06-19T14:38:42.961Z,6.73
2018-06-19T14:41:11.060Z,7.57
2018-06-19T14:43:39.220Z,6.60
2018-06-19T14:46:07.323Z,5.90
2018-06-19T14:48:35.435Z,6.50
2018-06-19T14:51:03.546Z,6.30
2018-06-19T14:53:31.633Z,6.83
2018-06-19T14:55:59.749Z,6.40
2018-06-19T14:58:27.847Z,6.17
2018-06-19T15:00:55.976Z,7.00
2018-06-19T15:03:24.085Z,6.50
2018-06-19T15:05:52.207Z,7.17
2018-06-19T15:08:20.289Z,6.53
2018-06-19T15:10:48.374Z,6.63
2018-06-19T15:13:16.470Z,6.17
2018-06-19T15:15:44.556Z,6.53
2018-06-19T15:18:12.738Z,7.10
2018-06-19T15:20:40.804Z,8.00
2018-06-19T15:23:08.895Z,7.43
2018-06-19T15:25:37.000Z,7.70
2018-06-19T15:28:05.083Z,6.60
2018-06-19T15:30:32.958Z,7.60
2018-06-19T15:33:01.090Z,7.10
2018-06-19T15:35:29.183Z,8.23
2018-06-19T15:37:57.335Z,8.90
2018-06-19T15:40:25.420Z,7.73
2018-06-19T15:42:53.509Z,8.23
2018-06-19T15:45:22.403Z,8.57
2018-06-19T15:47:50.502Z,7.90
2018-06-19T15:50:18.587Z,8.27
2018-06-19T15:52:46.670Z,9.47
2018-06-19T15:55:14.763Z,8.57
2018-06-19T15:57:42.893Z,7.20
2018-06-19T16:00:10.999Z,8.43
2018-06-19T16:02:39.139Z,8.13
2018-06-19T16:05:07.231Z,8.83
2018-06-19T16:07:38.862Z,7.70
2018-06-19T16:10:06.963Z,7.67
2018-06-19T16:12:35.048Z,8.30
2018-06-19T16:15:03.778Z,8.53
2018-06-19T16:17:31.878Z,8.87
2018-06-19T16:19:59.997Z,9.50
2018-06-19T16:22:28.103Z,8.47
2018-06-19T16:24:56.228Z,9.23
2018-06-19T16:27:24.363Z,9.27
2018-06-19T16:29:52.490Z,9.23
2018-06-19T16:32:20.628Z,8.50
2018-06-19T16:34:48.744Z,9.20
2018-06-19T16:37:16.872Z,8.97
2018-06-19T16:39:44.982Z,9.50
2018-06-19T16:42:13.095Z,9.50
2018-06-19T16:44:40.982Z,9.20
2018-06-19T16:47:09.092Z,9.40
2018-06-19T16:49:37.207Z,10.00
2018-06-19T16:52:05.339Z,9.27
2018-06-19T16:54:33.447Z,10.73
2018-06-19T16:57:01.589Z,9.80
2018-06-19T16:59:29.717Z,10.83
2018-06-19T17:01:57.856Z,10.20
2018-06-19T17:04:25.971Z,11.37
2018-06-19T17:06:54.094Z,9.63
2018-06-19T17:09:22.211Z,10.47
2018-06-19T17:11:50.326Z,10.30
2018-06-19T17:14:18.489Z,10.13
2018-06-19T17:16:46.595Z,10.00
2018-06-19T17:19:14.681Z,10.03
2018-06-19T17:21:42.781Z,9.20
2018-06-19T17:24:10.878Z,10.47
2018-06-19T17:26:38.971Z,9.60
2018-06-19T17:29:07.119Z,9.57
2018-06-19T17:31:35.228Z,10.17
2018-06-19T17:34:03.393Z,9.73
2018-06-19T17:36:31.516Z,9.80
2018-06-19T17:38:59.631Z,9.23
2018-06-19T17:41:27.752Z,9.70
2018-06-19T17:43:55.838Z,10.03
2018-06-19T17:46:23.938Z,10.27
2018-06-19T17:48:52.054Z,10.40
2018-06-19T17:51:20.148Z,11.50
2018-06-19T17:53:48.260Z,10.40
2018-06-19T17:56:16.368Z,9.87
2018-06-19T17:58:44.464Z,11.33
2018-06-19T18:01:12.773Z,11.23
2018-06-19T18:03:40.899Z,12.07
2018-06-19T18:06:09.003Z,11.50
2018-06-19T18:08:37.100Z,11.60
2018-06-19T18:11:05.332Z,10.83
2018-06-19T18:13:33.456Z,13.23
2018-06-19T18:16:01.567Z,12.47
2018-06-19T18:18:29.683Z,11.90
2018-06-19T18:20:57.802Z,11.63
2018-06-19T18:23:25.886Z,12.80
2018-06-19T18:25:53.993Z,11.97
2018-06-19T18:28:22.103Z,12.90
2018-06-19T18:30:50.195Z,11.53
2018-06-19T18:33:18.322Z,12.27
2018-06-19T18:35:46.468Z,11.00
2018-06-19T18:38:14.563Z,11.50
2018-06-19T18:40:42.683Z,11.60
2018-06-19T18:43:10.794Z,12.20
2018-06-19T18:45:38.948Z,11.20
2018-06-19T18:48:07.039Z,11.40
2018-06-19T18:53:28.314Z,13.43
2018-06-19T18:55:56.887Z,12.83
2018-06-19T18:58:25.089Z,11.77
2018-06-19T19:00:53.291Z,11.47
2018-06-19T19:03:21.407Z,12.70
2018-06-19T19:05:49.527Z,12.03
2018-06-19T19:08:22.147Z,13.20
2018-06-19T19:10:52.622Z,11.13
2018-06-19T19:13:21.883Z,12.77
2018-06-19T19:15:55.384Z,12.07
2018-06-19T19:18:29.055Z,11.43
2018-06-19T19:20:58.104Z,13.60
2018-06-19T19:23:26.473Z,11.67
2018-06-19T19:25:54.580Z,12.20
2018-06-19T19:28:28.131Z,11.53
2018-06-19T19:30:56.241Z,11.90
2018-06-19T19:33:24.361Z,12.40
2018-06-19T19:35:52.489Z,11.80
2018-06-19T19:38:25.895Z,12.40
2018-06-19T19:40:54.000Z,11.77
2018-06-19T19:43:22.171Z,12.80
2018-06-19T19:45:50.290Z,11.57
2018-06-19T19:48:23.638Z,13.00
2018-06-19T19:50:51.748Z,12.80
2018-06-19T19:53:19.922Z,12.23
2018-06-19T19:55:53.538Z,14.40
2018-06-19T19:58:27.051Z,12.30
2018-06-19T20:00:55.162Z,12.50
2018-06-19T20:03:23.275Z,12.27
2018-06-19T20:05:51.449Z,12.47
2018-06-19T20:08:19.530Z,12.70
2018-06-19T20:10:47.723Z,12.57
2018-06-19T20:13:15.990Z,13.00
2018-06-19T20:15:44.204Z,12.77
2018-06-19T20:18:12.312Z,14.03
2018-06-19T20:20:40.445Z,13.47
2018-06-19T20:23:08.615Z,14.47
2018-06-19T20:25:36.668Z,13.33
2018-06-19T20:28:04.958Z,13.13
2018-06-19T20:30:33.060Z,13.13
2018-06-19T20:33:01.208Z,13.53
2018-06-19T20:35:29.564Z,13.70
2018-06-19T20:37:57.763Z,15.60
2018-06-19T20:40:25.866Z,14.90
2018-06-19T20:42:53.963Z,15.57
2018-06-19T20:45:22.079Z,16.30
2018-06-19T20:47:50.208Z,17.13
2018-06-19T20:50:18.341Z,14.37
2018-06-19T20:52:46.455Z,14.50
2018-06-19T20:55:14.559Z,15.13
2018-06-19T20:57:42.451Z,16.03
2018-06-19T21:00:10.562Z,16.70
2018-06-19T21:02:38.667Z,16.77
2018-06-19T21:05:06.787Z,15.43
2018-06-19T21:07:34.983Z,14.67
2018-06-19T21:10:02.895Z,14.37
2018-06-19T21:12:30.990Z,13.67
2018-06-19T21:14:59.111Z,14.60
2018-06-19T21:17:27.243Z,11.87
2018-06-19T21:19:55.364Z,14.43
2018-06-19T21:22:23.480Z,12.27
2018-06-19T21:24:51.593Z,14.27
2018-06-19T21:27:19.701Z,14.30
2018-06-19T21:29:47.855Z,13.10
2018-06-19T21:32:15.977Z,13.10
2018-06-19T21:34:44.100Z,15.50
2018-06-19T21:37:12.228Z,14.03
2018-06-19T21:39:40.340Z,14.73
2018-06-19T21:42:08.443Z,15.40
2018-06-19T21:44:36.566Z,14.00
2018-06-19T21:47:04.752Z,16.30
2018-06-19T21:49:32.876Z,14.97
2018-06-19T21:52:00.979Z,14.87
2018-06-19T21:54:29.070Z,15.83
2018-06-19T21:56:57.235Z,17.07
2018-06-19T21:59:25.313Z,16.20
2018-06-19T22:01:53.426Z,15.40
2018-06-19T22:04:21.536Z,18.10
2018-06-19T22:06:49.635Z,18.00
2018-06-19T22:09:17.792Z,19.13
2018-06-19T22:11:45.918Z,20.17
2018-06-19T22:14:14.023Z,19.40
2018-06-19T22:16:42.139Z,19.07
2018-06-19T22:19:10.229Z,19.00
2018-06-19T22:21:38.333Z,18.20
2018-06-19T22:24:06.460Z,18.13
2018-06-19T22:26:34.565Z,17.50
2018-06-19T22:29:02.707Z,18.70
2018-06-19T22:31:30.819Z,18.20
2018-06-19T22:33:58.978Z,17.60
2018-06-19T22:36:27.088Z,18.20
2018-06-19T22:38:55.177Z,19.97
2018-06-19T22:41:23.282Z,17.50
2018-06-19T22:43:51.396Z,19.60
2018-06-19T22:46:19.507Z,23.40
2018-06-19T22:48:47.623Z,22.63
2018-06-19T22:51:15.728Z,21.67
2018-06-19T22:53:43.851Z,19.03
2018-06-19T22:56:11.976Z,22.20
2018-06-19T22:58:40.068Z,21.57
2018-06-19T23:01:08.279Z,23.33
2018-06-19T23:03:36.384Z,26.40
2018-06-19T23:06:04.514Z,25.37
2018-06-19T23:08:35.288Z,27.80
2018-06-19T23:11:03.810Z,27.17
2018-06-19T23:13:31.907Z,26.03
2018-06-19T23:16:00.021Z,26.53
2018-06-19T23:18:28.152Z,27.27
2018-06-19T23:20:56.269Z,26.27
2018-06-19T23:23:24.478Z,27.70
2018-06-19T23:25:52.534Z,26.20
2018-06-19T23:28:20.636Z,26.80
2018-06-19T23:30:48.745Z,28.27
2018-06-19T23:33:16.830Z,25.80
2018-06-19T23:35:44.970Z,26.30
2018-06-19T23:38:13.064Z,25.70
2018-06-19T23:40:41.163Z,26.67
2018-06-19T23:43:09.292Z,25.57
2018-06-19T23:45:37.398Z,28.27
2018-06-19T23:48:05.475Z,24.37
2018-06-19T23:50:33.586Z,26.40
2018-06-19T23:53:01.710Z,23.83
2018-06-19T23:55:29.813Z,25.03
2018-06-19T23:57:57.933Z,24.30
